createdAt,value
2018-07-01T00:00:36.924Z,100891.89
2018-07-01T00:03:05.493Z,100884.47
2018-07-01T00:05:34.142Z,100891.08
2018-07-01T00:08:02.755Z,100891.08
2018-07-01T00:10:31.337Z,100889.98
2018-07-01T00:13:00.188Z,100892.47
2018-07-01T00:15:29.074Z,100892.77
2018-07-01T00:17:57.578Z,100892.51
2018-07-01T00:20:26.197Z,100895.05
2018-07-01T00:22:54.774Z,100897.75
2018-07-01T00:25:23.333Z,100900.82
2018-07-01T00:27:51.840Z,100900.94
2018-07-01T00:30:20.518Z,100907.05
2018-07-01T00:32:49.176Z,100902.99
2018-07-01T00:35:17.770Z,100901.81
2018-07-01T00:37:46.365Z,100904.28
2018-07-01T00:40:14.928Z,100913.81
2018-07-01T00:42:43.511Z,100915.71
2018-07-01T00:45:12.130Z,100911.84
2018-07-01T00:47:40.662Z,100912.33
2018-07-01T00:50:09.165Z,100905.49
2018-07-01T00:52:37.959Z,100908.22
2018-07-01T00:55:06.853Z,100904.84
2018-07-01T00:57:35.467Z,100905.37
2018-07-01T01:00:04.136Z,100909.35
2018-07-01T01:02:32.766Z,100912.84
2018-07-01T01:05:01.247Z,100916.36
2018-07-01T01:07:29.828Z,100916.13
2018-07-01T01:09:58.708Z,100913.20
2018-07-01T01:12:27.332Z,100915.08
2018-07-01T01:14:56.055Z,100914.08
2018-07-01T01:17:24.777Z,100912.05
2018-07-01T01:19:53.337Z,100913.09
2018-07-01T01:22:21.891Z,100910.53
2018-07-01T01:24:50.376Z,100913.47
2018-07-01T01:27:18.847Z,100908.51
2018-07-01T01:29:47.489Z,100906.84
2018-07-01T01:32:16.091Z,100906.78
2018-07-01T01:34:44.636Z,100911.90
2018-07-01T01:37:13.202Z,100911.13
2018-07-01T01:39:43.062Z,100915.50
2018-07-01T01:42:18.053Z,100909.23
2018-07-01T01:44:50.873Z,100914.22
2018-07-01T01:47:24.340Z,100914.31
2018-07-01T01:50:02.080Z,100922.52
2018-07-01T01:52:35.222Z,100913.98
2018-07-01T01:55:08.624Z,100924.41
2018-07-01T01:57:41.921Z,100924.86
2018-07-01T02:00:14.483Z,100919.86
2018-07-01T02:04:52.804Z,100919.95
2018-07-01T02:07:29.468Z,100921.17
2018-07-01T02:09:58.049Z,100916.08
2018-07-01T02:12:26.924Z,100919.12
2018-07-01T02:15:02.327Z,100919.84
2018-07-01T02:17:33.780Z,100921.63
2018-07-01T02:20:02.349Z,100918.89
2018-07-01T02:22:37.394Z,100915.92
2018-07-01T02:25:09.733Z,100917.45
2018-07-01T02:27:38.515Z,100916.36
2018-07-01T02:30:07.355Z,100915.77
2018-07-01T02:32:36.173Z,100914.55
2018-07-01T02:35:04.796Z,100926.47
2018-07-01T02:37:33.591Z,100925.23
2018-07-01T02:40:02.191Z,100926.59
2018-07-01T02:42:30.841Z,100926.09
2018-07-01T02:44:59.473Z,100930.37
2018-07-01T02:47:28.079Z,100934.25
2018-07-01T02:49:56.585Z,100937.34
2018-07-01T02:52:25.167Z,100935.23
2018-07-01T02:54:53.725Z,100941.25
2018-07-01T02:57:22.433Z,100946.85
2018-07-01T02:59:50.971Z,100941.36
2018-07-01T03:02:19.679Z,100944.41
2018-07-01T03:04:48.213Z,100946.59
2018-07-01T03:07:16.693Z,100951.38
2018-07-01T03:09:45.250Z,100951.36
2018-07-01T03:12:13.800Z,100955.98
2018-07-01T03:14:42.337Z,100958.98
2018-07-01T03:17:10.903Z,100963.84
2018-07-01T03:19:39.403Z,100969.33
2018-07-01T03:22:08.005Z,100971.10
2018-07-01T03:24:36.543Z,100973.77
2018-07-01T03:27:05.080Z,100974.62
2018-07-01T03:29:33.607Z,100975.98
2018-07-01T03:32:02.112Z,100980.66
2018-07-01T03:34:30.667Z,100986.08
2018-07-01T03:36:59.424Z,100988.09
2018-07-01T03:39:28.141Z,100987.97
2018-07-01T03:41:56.747Z,100984.39
2018-07-01T03:44:25.313Z,100988.69
2018-07-01T03:46:53.863Z,100991.83
2018-07-01T03:49:22.617Z,100994.00
2018-07-01T03:51:51.233Z,100999.30
2018-07-01T03:54:19.858Z,100995.93
2018-07-01T03:57:02.801Z,100996.36
2018-07-01T03:59:31.387Z,101007.02
2018-07-01T04:02:00.012Z,101009.43
2018-07-01T04:04:28.783Z,101012.70
2018-07-01T04:06:57.381Z,101009.64
2018-07-01T04:09:25.993Z,101002.64
2018-07-01T04:11:54.622Z,101004.62
2018-07-01T04:14:23.319Z,101006.28
2018-07-01T04:16:52.026Z,101011.76
2018-07-01T04:19:24.771Z,101006.14
2018-07-01T04:21:53.577Z,101010.84
2018-07-01T04:24:22.123Z,101011.99
2018-07-01T04:26:50.685Z,101009.70
2018-07-01T04:29:19.454Z,101015.27
2018-07-01T04:31:47.956Z,101017.31
2018-07-01T04:34:16.506Z,101014.32
2018-07-01T04:36:45.324Z,101013.45
2018-07-01T04:39:13.897Z,101016.42
2018-07-01T04:41:42.459Z,101020.58
2018-07-01T04:44:11.105Z,101019.74
2018-07-01T04:46:39.663Z,101019.56
2018-07-01T04:49:08.262Z,101022.58
2018-07-01T04:51:36.807Z,101019.96
2018-07-01T04:54:05.435Z,101016.92
2018-07-01T04:56:33.998Z,101020.57
2018-07-01T04:59:02.602Z,101023.36
2018-07-01T05:01:31.176Z,101020.91
2018-07-01T05:04:00.117Z,101023.37
2018-07-01T05:06:28.896Z,101024.66
2018-07-01T05:08:57.364Z,101025.21
2018-07-01T05:11:25.915Z,101017.41
2018-07-01T05:13:55.305Z,101026.36
2018-07-01T05:16:23.886Z,101023.56
2018-07-01T05:18:52.771Z,101025.65
2018-07-01T05:21:21.361Z,101022.04
2018-07-01T05:23:49.869Z,101021.17
2018-07-01T05:26:18.379Z,101023.02
2018-07-01T05:28:47.052Z,101018.09
2018-07-01T05:31:15.666Z,101019.70
2018-07-01T05:33:44.226Z,101021.81
2018-07-01T05:36:13.090Z,101019.07
2018-07-01T05:38:41.663Z,101030.81
2018-07-01T05:41:10.217Z,101031.16
2018-07-01T05:43:38.804Z,101033.86
2018-07-01T05:46:07.550Z,101036.05
2018-07-01T05:48:36.316Z,101037.95
2018-07-01T05:51:05.142Z,101037.61
2018-07-01T05:53:33.848Z,101041.74
2018-07-01T05:56:02.427Z,101039.06
2018-07-01T05:58:30.958Z,101035.72
2018-07-01T06:00:59.519Z,101041.60
2018-07-01T06:03:28.249Z,101034.53
2018-07-01T06:05:56.853Z,101045.19
2018-07-01T06:08:25.434Z,101035.91
2018-07-01T06:10:53.975Z,101041.23
2018-07-01T06:13:22.824Z,101044.52
2018-07-01T06:15:51.351Z,101041.39
2018-07-01T06:18:20.005Z,101045.32
2018-07-01T06:20:48.624Z,101050.18
2018-07-01T06:23:17.224Z,101050.44
2018-07-01T06:25:46.027Z,101049.22
2018-07-01T06:28:14.544Z,101049.56
2018-07-01T06:30:43.159Z,101050.89
2018-07-01T06:33:11.946Z,101051.10
2018-07-01T06:35:40.556Z,101050.34
2018-07-01T06:38:09.237Z,101048.05
2018-07-01T06:40:37.796Z,101052.88
2018-07-01T06:43:06.413Z,101051.28
2018-07-01T06:45:36.270Z,101053.48
2018-07-01T06:48:05.277Z,101052.25
2018-07-01T06:50:33.878Z,101052.98
2018-07-01T06:53:02.634Z,101057.70
2018-07-01T06:55:31.195Z,101059.64
2018-07-01T06:58:00.022Z,101058.62
2018-07-01T07:00:28.508Z,101059.91
2018-07-01T07:02:57.037Z,101057.81
2018-07-01T07:05:25.668Z,101048.16
2018-07-01T07:07:54.810Z,101054.53
2018-07-01T07:10:23.602Z,101058.86
2018-07-01T07:12:52.152Z,101054.02
2018-07-01T07:15:20.981Z,101054.66
2018-07-01T07:17:49.662Z,101054.45
2018-07-01T07:20:18.615Z,101058.86
2018-07-01T07:22:47.194Z,101060.90
2018-07-01T07:25:15.718Z,101061.55
2018-07-01T07:27:44.568Z,101055.89
2018-07-01T07:30:13.175Z,101063.23
2018-07-01T07:32:41.940Z,101057.55
2018-07-01T07:35:10.595Z,101059.72
2018-07-01T07:37:39.316Z,101054.50
2018-07-01T07:40:07.968Z,101062.69
2018-07-01T07:42:36.715Z,101045.77
2018-07-01T07:45:05.412Z,101043.55
2018-07-01T07:47:34.007Z,101045.27
2018-07-01T07:50:02.532Z,101045.18
2018-07-01T07:52:31.098Z,101050.53
2018-07-01T07:54:59.734Z,101044.20
2018-07-01T07:57:31.729Z,101042.46
2018-07-01T08:00:01.563Z,101060.92
2018-07-01T08:02:30.432Z,101042.39
2018-07-01T08:04:58.924Z,101041.20
2018-07-01T08:07:27.539Z,101035.50
2018-07-01T08:09:58.437Z,101032.70
2018-07-01T08:12:27.123Z,101031.70
2018-07-01T08:14:56.680Z,101041.88
2018-07-01T08:17:25.475Z,101045.55
2018-07-01T08:19:57.264Z,101039.40
2018-07-01T08:22:26.177Z,101042.25
2018-07-01T08:25:00.636Z,101045.81
2018-07-01T08:27:29.361Z,101043.21
2018-07-01T08:29:57.978Z,101041.70
2018-07-01T08:32:26.506Z,101049.00
2018-07-01T08:34:55.175Z,101042.61
2018-07-01T08:37:23.839Z,101038.69
2018-07-01T08:39:54.028Z,101041.91
2018-07-01T08:42:23.771Z,101044.70
2018-07-01T08:44:53.572Z,101047.28
2018-07-01T08:47:22.139Z,101040.77
2018-07-01T08:49:50.767Z,101038.35
2018-07-01T08:52:19.756Z,101037.97
2018-07-01T08:54:48.460Z,101045.41
2018-07-01T08:57:18.272Z,101042.84
2018-07-01T08:59:47.699Z,101039.09
2018-07-01T09:02:17.159Z,101040.37
2018-07-01T09:04:45.774Z,101036.28
2018-07-01T09:07:14.973Z,101028.92
2018-07-01T09:09:43.557Z,101038.62
2018-07-01T09:12:12.270Z,101035.90
2018-07-01T09:14:40.734Z,101049.42
2018-07-01T09:17:09.933Z,101044.13
2018-07-01T09:19:38.837Z,101037.66
2018-07-01T09:22:07.851Z,101036.03
2018-07-01T09:24:36.586Z,101034.58
2018-07-01T09:27:05.991Z,101045.84
2018-07-01T09:29:35.250Z,101035.66
2018-07-01T09:32:04.202Z,101036.89
2018-07-01T09:34:32.808Z,101039.97
2018-07-01T09:37:01.383Z,101041.16
2018-07-01T09:39:29.960Z,101040.56
2018-07-01T09:41:59.337Z,101031.75
2018-07-01T09:44:28.109Z,101032.70
2018-07-01T09:46:56.630Z,101042.53
2018-07-01T09:49:25.176Z,101043.53
2018-07-01T09:51:53.928Z,101026.81
2018-07-01T09:54:22.574Z,101037.44
2018-07-01T09:56:51.117Z,101032.59
2018-07-01T09:59:20.251Z,101034.83
2018-07-01T10:01:49.206Z,101026.55
2018-07-01T10:04:17.786Z,101032.69
2018-07-01T10:06:46.318Z,101034.44
2018-07-01T10:09:15.117Z,101031.66
2018-07-01T10:11:43.721Z,101027.64
2018-07-01T10:14:12.254Z,101031.45
2018-07-01T10:16:40.972Z,101022.95
2018-07-01T10:19:09.464Z,101026.48
2018-07-01T10:21:38.039Z,101013.37
2018-07-01T10:24:06.590Z,101010.64
2018-07-01T10:26:35.203Z,101020.45
2018-07-01T10:29:09.674Z,101020.35
2018-07-01T10:31:38.725Z,101028.46
2018-07-01T10:34:08.299Z,101023.63
2018-07-01T10:36:36.909Z,101012.84
2018-07-01T10:39:20.176Z,101013.35
2018-07-01T10:41:49.264Z,101004.17
2018-07-01T10:44:17.841Z,101016.96
2018-07-01T10:46:46.529Z,101010.05
2018-07-01T10:49:15.119Z,101006.32
2018-07-01T10:51:43.850Z,100995.76
2018-07-01T10:54:12.571Z,100992.39
2018-07-01T10:56:41.110Z,100993.83
2018-07-01T10:59:10.022Z,101002.56
2018-07-01T11:01:38.650Z,100996.16
2018-07-01T11:04:07.336Z,100998.80
2018-07-01T11:06:36.188Z,100994.38
2018-07-01T11:09:09.201Z,100986.68
2018-07-01T11:11:37.821Z,100980.55
2018-07-01T11:14:06.567Z,100980.92
2018-07-01T11:16:35.092Z,100997.53
2018-07-01T11:19:03.664Z,100999.13
2018-07-01T11:21:32.201Z,100983.69
2018-07-01T11:24:00.753Z,100968.83
2018-07-01T11:26:29.396Z,100968.41
2018-07-01T11:28:57.937Z,100972.00
2018-07-01T11:31:26.450Z,100968.52
2018-07-01T11:33:54.934Z,100959.90
2018-07-01T11:36:23.613Z,100960.92
2018-07-01T11:38:52.288Z,100967.66
2018-07-01T11:41:21.063Z,100952.94
2018-07-01T11:43:49.622Z,100968.86
2018-07-01T11:46:18.177Z,100971.90
2018-07-01T11:48:46.640Z,100965.44
2018-07-01T11:51:15.119Z,100964.87
2018-07-01T11:53:43.641Z,100961.27
2018-07-01T11:56:12.263Z,100954.96
2018-07-01T11:58:40.730Z,100957.86
2018-07-01T12:01:09.304Z,100951.75
2018-07-01T12:03:37.837Z,100952.46
2018-07-01T12:06:06.518Z,100945.89
2018-07-01T12:08:35.111Z,100950.50
2018-07-01T12:11:03.765Z,100943.05
2018-07-01T12:13:32.275Z,100941.34
2018-07-01T12:16:00.988Z,100947.89
2018-07-01T12:18:29.799Z,100937.77
2018-07-01T12:20:58.449Z,100941.64
2018-07-01T12:23:27.137Z,100931.30
2018-07-01T12:25:56.101Z,100932.58
2018-07-01T12:28:24.753Z,100930.95
2018-07-01T12:30:53.408Z,100933.03
2018-07-01T12:33:21.976Z,100943.66
2018-07-01T12:35:50.528Z,100947.62
2018-07-01T12:38:19.034Z,100929.25
2018-07-01T12:40:47.567Z,100926.23
2018-07-01T12:43:16.127Z,100925.45
2018-07-01T12:45:44.654Z,100927.02
2018-07-01T12:48:13.241Z,100922.72
2018-07-01T12:50:41.903Z,100921.42
2018-07-01T12:53:10.468Z,100920.63
2018-07-01T12:55:39.190Z,100928.81
2018-07-01T12:58:07.756Z,100924.54
2018-07-01T13:00:36.267Z,100917.42
2018-07-01T13:03:04.828Z,100905.81
2018-07-01T13:05:33.438Z,100902.59
2018-07-01T13:08:01.907Z,100895.67
2018-07-01T13:10:30.403Z,100893.39
2018-07-01T13:12:59.045Z,100903.83
2018-07-01T13:15:27.570Z,100897.87
2018-07-01T13:17:56.098Z,100899.73
2018-07-01T13:20:24.604Z,100896.64
2018-07-01T13:22:53.208Z,100897.34
2018-07-01T13:25:21.848Z,100887.63
2018-07-01T13:27:50.382Z,100889.31
2018-07-01T13:30:19.424Z,100894.70
2018-07-01T13:32:48.104Z,100887.27
2018-07-01T13:35:16.910Z,100872.37
2018-07-01T13:37:45.782Z,100888.58
2018-07-01T13:40:14.319Z,100882.80
2018-07-01T13:42:43.896Z,100878.03
2018-07-01T13:45:12.576Z,100878.69
2018-07-01T13:47:41.058Z,100886.06
2018-07-01T13:50:09.803Z,100885.41
2018-07-01T13:52:38.671Z,100887.56
2018-07-01T13:55:07.331Z,100883.32
2018-07-01T13:57:36.461Z,100870.67
2018-07-01T14:00:06.521Z,100871.33
2018-07-01T14:02:35.100Z,100868.34
2018-07-01T14:05:03.893Z,100861.17
2018-07-01T14:10:00.368Z,100873.10
2018-07-01T14:12:29.154Z,100853.52
2018-07-01T14:14:57.699Z,100860.34
2018-07-01T14:17:28.560Z,100854.54
2018-07-01T14:19:57.153Z,100857.17
2018-07-01T14:22:26.175Z,100859.11
2018-07-01T14:24:54.923Z,100853.44
2018-07-01T14:27:23.426Z,100856.23
2018-07-01T14:29:52.017Z,100842.52
2018-07-01T14:32:20.886Z,100853.55
2018-07-01T14:34:49.447Z,100843.66
2018-07-01T14:37:17.965Z,100824.81
2018-07-01T14:39:46.622Z,100823.50
2018-07-01T14:42:15.354Z,100822.08
2018-07-01T14:44:43.986Z,100830.03
2018-07-01T14:47:12.524Z,100843.45
2018-07-01T14:49:41.070Z,100841.59
2018-07-01T14:52:39.985Z,100833.64
2018-07-01T14:55:08.568Z,100831.91
2018-07-01T14:57:37.494Z,100824.79
2018-07-01T15:00:06.080Z,100817.45
2018-07-01T15:02:34.962Z,100828.48
2018-07-01T15:05:03.529Z,100828.23
2018-07-01T15:07:32.280Z,100822.73
2018-07-01T15:10:00.841Z,100819.11
2018-07-01T15:12:29.397Z,100820.33
2018-07-01T15:14:58.081Z,100814.53
2018-07-01T15:17:26.652Z,100817.70
2018-07-01T15:19:55.215Z,100805.78
2018-07-01T15:22:24.107Z,100814.55
2018-07-01T15:24:53.055Z,100811.20
2018-07-01T15:27:21.573Z,100812.48
2018-07-01T15:29:50.365Z,100810.00
2018-07-01T15:32:18.857Z,100802.54
2018-07-01T15:34:47.575Z,100805.96
2018-07-01T15:37:16.908Z,100796.94
2018-07-01T15:39:45.605Z,100797.02
2018-07-01T15:42:14.246Z,100802.05
2018-07-01T15:44:42.839Z,100792.31
2018-07-01T15:47:11.425Z,100799.44
2018-07-01T15:49:40.010Z,100789.57
2018-07-01T15:52:10.973Z,100802.16
2018-07-01T15:54:39.522Z,100797.53
2018-07-01T15:57:08.042Z,100796.28
2018-07-01T15:59:36.731Z,100784.18
2018-07-01T16:02:05.426Z,100786.95
2018-07-01T16:04:34.328Z,100772.61
2018-07-01T16:07:03.225Z,100768.02
2018-07-01T16:09:32.114Z,100767.36
2018-07-01T16:12:01.114Z,100770.30
2018-07-01T16:14:29.818Z,100766.02
2018-07-01T16:16:58.471Z,100768.20
2018-07-01T16:19:27.139Z,100762.77
2018-07-01T16:21:55.773Z,100765.11
2018-07-01T16:24:24.436Z,100760.62
2018-07-01T16:26:55.668Z,100760.00
2018-07-01T16:29:24.506Z,100762.11
2018-07-01T16:31:53.324Z,100762.84
2018-07-01T16:34:22.499Z,100755.92
2018-07-01T16:36:51.477Z,100761.37
2018-07-01T16:39:20.455Z,100749.33
2018-07-01T16:41:48.921Z,100754.43
2018-07-01T16:44:17.445Z,100755.46
2018-07-01T16:46:45.931Z,100757.01
2018-07-01T16:49:14.725Z,100757.26
2018-07-01T16:51:43.473Z,100748.44
2018-07-01T16:54:12.301Z,100753.44
2018-07-01T16:56:40.817Z,100749.32
2018-07-01T16:59:09.343Z,100753.69
2018-07-01T17:01:37.822Z,100758.27
2018-07-01T17:04:06.475Z,100753.05
2018-07-01T17:06:35.101Z,100754.09
2018-07-01T17:09:06.639Z,100748.96
2018-07-01T17:11:35.235Z,100752.87
2018-07-01T17:14:04.013Z,100758.75
2018-07-01T17:16:32.768Z,100762.00
2018-07-01T17:19:01.428Z,100751.94
2018-07-01T17:21:29.914Z,100745.91
2018-07-01T17:23:58.437Z,100761.47
2018-07-01T17:26:27.115Z,100752.70
2018-07-01T17:28:55.705Z,100758.30
2018-07-01T17:32:32.735Z,100757.53
2018-07-01T17:35:01.271Z,100762.68
2018-07-01T17:37:30.188Z,100760.36
2018-07-01T17:39:58.758Z,100766.70
2018-07-01T17:42:27.869Z,100771.72
2018-07-01T17:44:56.590Z,100762.40
2018-07-01T17:47:25.140Z,100763.52
2018-07-01T17:49:53.792Z,100752.08
2018-07-01T17:52:22.597Z,100761.86
2018-07-01T17:54:51.075Z,100757.84
2018-07-01T17:57:19.958Z,100762.31
2018-07-01T17:59:48.522Z,100760.65
2018-07-01T18:02:17.152Z,100755.60
2018-07-01T18:04:45.856Z,100750.59
2018-07-01T18:07:14.839Z,100758.70
2018-07-01T18:09:44.083Z,100761.44
2018-07-01T18:12:12.706Z,100758.48
2018-07-01T18:14:41.862Z,100769.73
2018-07-01T18:17:10.419Z,100765.83
2018-07-01T18:19:38.939Z,100763.41
2018-07-01T18:22:13.340Z,100766.85
2018-07-01T18:24:58.071Z,100764.80
2018-07-01T18:27:05.110Z,100765.72
2018-07-01T18:29:33.646Z,100761.90
2018-07-01T18:32:02.154Z,100763.28
2018-07-01T18:34:30.664Z,100762.26
2018-07-01T18:36:59.194Z,100756.77
2018-07-01T18:39:27.920Z,100762.62
2018-07-01T18:41:56.454Z,100767.27
2018-07-01T18:44:25.273Z,100762.34
2018-07-01T18:46:53.792Z,100764.91
2018-07-01T18:49:22.740Z,100768.10
2018-07-01T18:51:51.301Z,100764.34
2018-07-01T18:54:19.805Z,100767.66
2018-07-01T18:56:48.393Z,100766.15
2018-07-01T18:59:16.900Z,100764.28
2018-07-01T19:01:45.402Z,100769.61
2018-07-01T19:04:14.161Z,100779.83
2018-07-01T19:06:42.857Z,100774.99
2018-07-01T19:09:11.921Z,100771.79
2018-07-01T19:11:44.261Z,100774.52
2018-07-01T19:14:12.991Z,100774.16
2018-07-01T19:16:41.547Z,100778.95
2018-07-01T19:19:10.202Z,100776.78
2018-07-01T19:21:39.139Z,100773.11
2018-07-01T19:24:08.342Z,100776.52
2018-07-01T19:26:36.982Z,100779.91
2018-07-01T19:29:06.553Z,100789.56
2018-07-01T19:31:35.183Z,100788.01
2018-07-01T19:34:03.821Z,100785.36
2018-07-01T19:36:32.588Z,100785.36
2018-07-01T19:39:01.369Z,100784.57
2018-07-01T19:41:30.182Z,100787.64
2018-07-01T19:44:13.535Z,100780.26
2018-07-01T19:46:49.061Z,100784.55
2018-07-01T19:49:38.769Z,100784.96
2018-07-01T19:52:07.827Z,100783.51
2018-07-01T19:54:37.010Z,100790.17
2018-07-01T19:57:05.735Z,100793.98
2018-07-01T19:59:34.290Z,100799.19
2018-07-01T20:02:03.273Z,100801.95
2018-07-01T20:04:33.479Z,100806.22
2018-07-01T20:07:02.083Z,100804.86
2018-07-01T20:09:31.000Z,100805.70
2018-07-01T20:11:59.969Z,100805.03
2018-07-01T20:14:28.817Z,100808.59
2018-07-01T20:16:57.445Z,100805.30
2018-07-01T20:19:26.126Z,100809.09
2018-07-01T20:21:55.717Z,100809.52
2018-07-01T20:24:24.721Z,100803.92
2018-07-01T20:26:53.698Z,100804.33
2018-07-01T20:29:22.662Z,100805.91
2018-07-01T20:31:51.280Z,100803.70
2018-07-01T20:34:19.967Z,100804.58
2018-07-01T20:36:48.493Z,100804.83
2018-07-01T20:39:17.005Z,100801.33
2018-07-01T20:41:45.927Z,100802.36
2018-07-01T20:44:56.021Z,100805.20
2018-07-01T20:47:30.445Z,100814.00
2018-07-01T20:50:03.393Z,100804.95
2018-07-01T20:52:32.044Z,100812.55
2018-07-01T20:55:00.935Z,100810.31
2018-07-01T20:57:30.170Z,100811.92
2018-07-01T20:59:59.328Z,100812.84
2018-07-01T21:02:27.782Z,100812.59
2018-07-01T21:04:57.405Z,100815.00
2018-07-01T21:07:26.340Z,100814.62
2018-07-01T21:09:55.137Z,100811.84
2018-07-01T21:12:23.710Z,100810.67
2018-07-01T21:14:52.486Z,100813.66
2018-07-01T21:17:20.972Z,100817.17
2018-07-01T21:19:49.746Z,100818.74
2018-07-01T21:22:18.280Z,100821.99
2018-07-01T21:24:47.036Z,100819.28
2018-07-01T21:27:15.621Z,100815.90
2018-07-01T21:29:44.353Z,100817.66
2018-07-01T21:32:12.952Z,100818.11
2018-07-01T21:34:41.530Z,100815.45
2018-07-01T21:37:10.326Z,100814.80
2018-07-01T21:39:39.111Z,100820.69
2018-07-01T21:42:08.064Z,100824.81
2018-07-01T21:44:36.685Z,100829.45
2018-07-01T21:47:05.571Z,100836.00
2018-07-01T21:49:34.122Z,100836.19
2018-07-01T21:52:02.709Z,100836.47
2018-07-01T21:54:31.179Z,100838.67
2018-07-01T21:56:59.744Z,100838.84
2018-07-01T21:59:28.306Z,100841.77
2018-07-01T22:01:56.921Z,100841.30
2018-07-01T22:04:25.598Z,100844.38
2018-07-01T22:06:59.140Z,100840.79
2018-07-01T22:09:28.281Z,100842.67
2018-07-01T22:12:08.207Z,100838.13
2018-07-01T22:14:47.929Z,100846.94
2018-07-01T22:17:16.784Z,100849.14
2018-07-01T22:19:45.672Z,100845.09
2018-07-01T22:22:14.221Z,100843.77
2018-07-01T22:24:42.975Z,100843.69
2018-07-01T22:27:11.524Z,100847.97
2018-07-01T22:29:40.063Z,100845.23
2018-07-01T22:32:08.916Z,100848.48
2018-07-01T22:34:37.478Z,100847.02
2018-07-01T22:37:06.218Z,100852.17
2018-07-01T22:39:34.723Z,100842.66
2018-07-01T22:42:03.498Z,100840.87
2018-07-01T22:44:32.329Z,100836.92
2018-07-01T22:47:01.008Z,100834.97
2018-07-01T22:49:29.693Z,100837.40
2018-07-01T22:51:58.274Z,100833.72
2018-07-01T22:54:26.847Z,100838.95
2018-07-01T22:56:55.399Z,100836.12
2018-07-01T22:59:23.916Z,100840.55
2018-07-01T23:03:04.056Z,100842.49
2018-07-01T23:05:32.573Z,100844.46
2018-07-01T23:08:01.184Z,100844.27
2018-07-01T23:10:30.682Z,100842.70
2018-07-01T23:12:59.679Z,100842.55
2018-07-01T23:15:28.468Z,100842.27
2018-07-01T23:17:57.369Z,100840.56
2018-07-01T23:20:25.972Z,100834.78
2018-07-01T23:22:54.741Z,100838.38
2018-07-01T23:25:23.359Z,100832.77
2018-07-01T23:27:52.140Z,100830.47
2018-07-01T23:30:20.881Z,100838.84
2018-07-01T23:32:49.644Z,100831.55
2018-07-01T23:35:18.366Z,100833.47
2018-07-01T23:37:46.901Z,100834.76
2018-07-01T23:40:15.597Z,100835.25
2018-07-01T23:42:44.236Z,100834.86
2018-07-01T23:45:15.868Z,100834.16
2018-07-01T23:47:44.808Z,100829.98
2018-07-01T23:50:13.616Z,100837.33
2018-07-01T23:52:42.302Z,100838.91
2018-07-01T23:55:11.379Z,100834.19
2018-07-01T23:57:39.936Z,100837.34
